sensor_id;sensor_type;location;lat;lon;timestamp;temperature;humidity
21676;DHT22;10999;51.332;9.458;2023-04-06T00:00:21;-0.10;68.40
21676;DHT22;10999;51.332;9.458;2023-04-06T00:02:49;-0.10;68.80
21676;DHT22;10999;51.332;9.458;2023-04-06T00:05:16;-0.10;68.80
21676;DHT22;10999;51.332;9.458;2023-04-06T00:07:43;-0.10;69.10
21676;DHT22;10999;51.332;9.458;2023-04-06T00:10:09;-0.10;69.00
21676;DHT22;10999;51.332;9.458;2023-04-06T00:12:36;-0.20;69.00
21676;DHT22;10999;51.332;9.458;2023-04-06T00:15:03;-0.20;69.20
21676;DHT22;10999;51.332;9.458;2023-04-06T00:17:32;-0.20;69.30
21676;DHT22;10999;51.332;9.458;2023-04-06T00:19:58;-0.30;70.10
21676;DHT22;10999;51.332;9.458;2023-04-06T00:22:25;-0.30;70.00
21676;DHT22;10999;51.332;9.458;2023-04-06T00:24:52;-0.30;69.90
21676;DHT22;10999;51.332;9.458;2023-04-06T00:27:19;-0.30;69.90
21676;DHT22;10999;51.332;9.458;2023-04-06T00:29:46;-0.30;70.00
21676;DHT22;10999;51.332;9.458;2023-04-06T00:32:13;-0.30;70.40
21676;DHT22;10999;51.332;9.458;2023-04-06T00:34:39;-0.40;70.60
21676;DHT22;10999;51.332;9.458;2023-04-06T00:37:06;-0.40;70.70
21676;DHT22;10999;51.332;9.458;2023-04-06T00:39:33;-0.40;70.70
21676;DHT22;10999;51.332;9.458;2023-04-06T00:42:01;-0.40;70.60
21676;DHT22;10999;51.332;9.458;2023-04-06T00:44:34;-0.50;70.90
21676;DHT22;10999;51.332;9.458;2023-04-06T00:47:00;-0.50;71.20
21676;DHT22;10999;51.332;9.458;2023-04-06T00:49:27;-0.50;71.30
21676;DHT22;10999;51.332;9.458;2023-04-06T00:51:54;-0.50;71.40
21676;DHT22;10999;51.332;9.458;2023-04-06T00:54:21;-0.50;71.60
21676;DHT22;10999;51.332;9.458;2023-04-06T00:56:48;-0.50;71.70
21676;DHT22;10999;51.332;9.458;2023-04-06T00:59:15;-0.50;71.70
21676;DHT22;10999;51.332;9.458;2023-04-06T01:01:42;-0.60;71.70
21676;DHT22;10999;51.332;9.458;2023-04-06T01:04:09;-0.60;71.90
21676;DHT22;10999;51.332;9.458;2023-04-06T01:06:36;-0.70;72.20
21676;DHT22;10999;51.332;9.458;2023-04-06T01:09:03;-0.70;72.40
21676;DHT22;10999;51.332;9.458;2023-04-06T01:11:30;-0.70;72.60
21676;DHT22;10999;51.332;9.458;2023-04-06T01:13:58;-0.70;72.70
21676;DHT22;10999;51.332;9.458;2023-04-06T01:16:25;-0.70;72.90
21676;DHT22;10999;51.332;9.458;2023-04-06T01:18:52;-0.80;73.00
21676;DHT22;10999;51.332;9.458;2023-04-06T01:21:19;-0.70;73.10
21676;DHT22;10999;51.332;9.458;2023-04-06T01:23:46;-0.70;73.20
21676;DHT22;10999;51.332;9.458;2023-04-06T01:26:13;-0.80;73.40
21676;DHT22;10999;51.332;9.458;2023-04-06T01:28:40;-0.90;73.70
21676;DHT22;10999;51.332;9.458;2023-04-06T01:31:08;-0.90;74.00
21676;DHT22;10999;51.332;9.458;2023-04-06T01:33:36;-0.90;74.30
21676;DHT22;10999;51.332;9.458;2023-04-06T01:36:03;-0.90;74.70
21676;DHT22;10999;51.332;9.458;2023-04-06T01:38:30;-0.90;74.90
21676;DHT22;10999;51.332;9.458;2023-04-06T01:40:57;-0.90;75.00
21676;DHT22;10999;51.332;9.458;2023-04-06T01:43:24;-1.00;75.00
21676;DHT22;10999;51.332;9.458;2023-04-06T01:45:52;-1.00;75.20
21676;DHT22;10999;51.332;9.458;2023-04-06T01:48:19;-1.00;75.20
21676;DHT22;10999;51.332;9.458;2023-04-06T01:50:46;-1.00;75.20
21676;DHT22;10999;51.332;9.458;2023-04-06T01:53:13;-1.00;75.30
21676;DHT22;10999;51.332;9.458;2023-04-06T01:55:41;-1.10;75.60
21676;DHT22;10999;51.332;9.458;2023-04-06T01:58:08;-1.10;75.80
21676;DHT22;10999;51.332;9.458;2023-04-06T02:00:35;-1.10;75.80
21676;DHT22;10999;51.332;9.458;2023-04-06T02:03:02;-1.10;75.90
21676;DHT22;10999;51.332;9.458;2023-04-06T02:05:31;-1.10;76.90
21676;DHT22;10999;51.332;9.458;2023-04-06T02:07:58;-1.10;76.30
21676;DHT22;10999;51.332;9.458;2023-04-06T02:10:25;-1.20;76.40
21676;DHT22;10999;51.332;9.458;2023-04-06T02:12:52;-1.20;76.30
21676;DHT22;10999;51.332;9.458;2023-04-06T02:15:18;-1.20;76.40
21676;DHT22;10999;51.332;9.458;2023-04-06T02:17:45;-1.20;76.50
21676;DHT22;10999;51.332;9.458;2023-04-06T02:20:12;-1.30;76.50
21676;DHT22;10999;51.332;9.458;2023-04-06T02:22:39;-1.30;76.60
21676;DHT22;10999;51.332;9.458;2023-04-06T02:25:07;-1.20;76.70
21676;DHT22;10999;51.332;9.458;2023-04-06T02:27:34;-1.30;76.70
21676;DHT22;10999;51.332;9.458;2023-04-06T02:30:05;-1.30;76.80
21676;DHT22;10999;51.332;9.458;2023-04-06T02:32:32;-1.30;76.90
21676;DHT22;10999;51.332;9.458;2023-04-06T02:34:59;-1.30;76.80
21676;DHT22;10999;51.332;9.458;2023-04-06T02:37:27;-1.30;76.90
21676;DHT22;10999;51.332;9.458;2023-04-06T02:39:54;-1.40;77.00
21676;DHT22;10999;51.332;9.458;2023-04-06T02:42:21;-1.40;77.10
21676;DHT22;10999;51.332;9.458;2023-04-06T02:44:48;-1.40;77.20
21676;DHT22;10999;51.332;9.458;2023-04-06T02:47:14;-1.40;77.30
21676;DHT22;10999;51.332;9.458;2023-04-06T02:49:42;-1.40;77.50
21676;DHT22;10999;51.332;9.458;2023-04-06T02:52:09;-1.50;77.70
21676;DHT22;10999;51.332;9.458;2023-04-06T02:54:35;-1.50;77.80
21676;DHT22;10999;51.332;9.458;2023-04-06T02:57:02;-1.50;77.80
21676;DHT22;10999;51.332;9.458;2023-04-06T02:59:29;-1.50;77.90
21676;DHT22;10999;51.332;9.458;2023-04-06T03:01:56;-1.50;77.90
21676;DHT22;10999;51.332;9.458;2023-04-06T03:04:23;-1.60;78.10
21676;DHT22;10999;51.332;9.458;2023-04-06T03:06:53;-1.60;78.00
21676;DHT22;10999;51.332;9.458;2023-04-06T03:09:21;-1.60;78.20
21676;DHT22;10999;51.332;9.458;2023-04-06T03:11:48;-1.60;78.20
21676;DHT22;10999;51.332;9.458;2023-04-06T03:14:15;-1.60;78.50
21676;DHT22;10999;51.332;9.458;2023-04-06T03:16:44;-1.60;78.80
21676;DHT22;10999;51.332;9.458;2023-04-06T03:19:11;-1.70;78.90
21676;DHT22;10999;51.332;9.458;2023-04-06T03:21:38;-1.70;79.00
21676;DHT22;10999;51.332;9.458;2023-04-06T03:24:05;-1.70;79.10
21676;DHT22;10999;51.332;9.458;2023-04-06T03:26:33;-1.70;79.20
21676;DHT22;10999;51.332;9.458;2023-04-06T03:29:03;-1.70;79.10
21676;DHT22;10999;51.332;9.458;2023-04-06T03:31:30;-1.70;79.20
21676;DHT22;10999;51.332;9.458;2023-04-06T03:33:57;-1.80;79.30
21676;DHT22;10999;51.332;9.458;2023-04-06T03:36:25;-1.80;79.30
21676;DHT22;10999;51.332;9.458;2023-04-06T03:38:53;-1.80;79.40
21676;DHT22;10999;51.332;9.458;2023-04-06T03:41:20;-1.90;79.60
21676;DHT22;10999;51.332;9.458;2023-04-06T03:43:48;-1.90;79.90
21676;DHT22;10999;51.332;9.458;2023-04-06T03:46:15;-1.80;80.10
21676;DHT22;10999;51.332;9.458;2023-04-06T03:48:42;-1.90;80.20
21676;DHT22;10999;51.332;9.458;2023-04-06T03:51:09;-1.90;80.30
21676;DHT22;10999;51.332;9.458;2023-04-06T03:53:36;-1.90;80.30
21676;DHT22;10999;51.332;9.458;2023-04-06T03:56:04;-1.90;80.40
21676;DHT22;10999;51.332;9.458;2023-04-06T03:58:31;-1.90;80.50
21676;DHT22;10999;51.332;9.458;2023-04-06T04:00:58;-1.90;80.60
21676;DHT22;10999;51.332;9.458;2023-04-06T04:03:25;-1.90;80.70
21676;DHT22;10999;51.332;9.458;2023-04-06T04:05:54;-1.90;80.80
21676;DHT22;10999;51.332;9.458;2023-04-06T04:08:24;-1.90;81.00
21676;DHT22;10999;51.332;9.458;2023-04-06T04:10:52;-2.00;80.90
21676;DHT22;10999;51.332;9.458;2023-04-06T04:13:22;-2.00;80.90
21676;DHT22;10999;51.332;9.458;2023-04-06T04:15:48;-2.00;80.90
21676;DHT22;10999;51.332;9.458;2023-04-06T04:18:16;-2.00;81.00
21676;DHT22;10999;51.332;9.458;2023-04-06T04:20:43;-2.00;81.20
21676;DHT22;10999;51.332;9.458;2023-04-06T04:23:11;-2.00;81.30
21676;DHT22;10999;51.332;9.458;2023-04-06T04:25:44;-2.10;81.50
21676;DHT22;10999;51.332;9.458;2023-04-06T04:28:12;-2.10;81.80
21676;DHT22;10999;51.332;9.458;2023-04-06T04:30:41;-2.20;81.90
21676;DHT22;10999;51.332;9.458;2023-04-06T04:33:26;-2.10;82.20
21676;DHT22;10999;51.332;9.458;2023-04-06T04:36:34;-2.20;82.50
21676;DHT22;10999;51.332;9.458;2023-04-06T04:39:07;-2.20;82.80
21676;DHT22;10999;51.332;9.458;2023-04-06T04:41:45;-2.20;82.70
21676;DHT22;10999;51.332;9.458;2023-04-06T04:45:14;-2.20;82.70
21676;DHT22;10999;51.332;9.458;2023-04-06T04:48:34;-2.20;82.90
21676;DHT22;10999;51.332;9.458;2023-04-06T04:51:15;-2.20;83.20
21676;DHT22;10999;51.332;9.458;2023-04-06T04:53:52;-2.20;83.20
21676;DHT22;10999;51.332;9.458;2023-04-06T04:56:46;-2.20;83.00
21676;DHT22;10999;51.332;9.458;2023-04-06T04:59:34;-2.20;83.10
21676;DHT22;10999;51.332;9.458;2023-04-06T05:05:59;-2.20;83.40
21676;DHT22;10999;51.332;9.458;2023-04-06T05:08:26;-2.20;83.50
21676;DHT22;10999;51.332;9.458;2023-04-06T05:10:57;-2.20;83.70
21676;DHT22;10999;51.332;9.458;2023-04-06T05:13:48;-2.20;84.00
21676;DHT22;10999;51.332;9.458;2023-04-06T05:16:35;-2.10;84.50
21676;DHT22;10999;51.332;9.458;2023-04-06T05:19:03;-2.00;84.40
21676;DHT22;10999;51.332;9.458;2023-04-06T05:21:38;-1.90;84.50
21676;DHT22;10999;51.332;9.458;2023-04-06T05:24:10;-1.80;84.60
21676;DHT22;10999;51.332;9.458;2023-04-06T05:27:08;-1.80;84.70
21676;DHT22;10999;51.332;9.458;2023-04-06T05:30:15;-1.60;84.80
21676;DHT22;10999;51.332;9.458;2023-04-06T05:32:52;-1.40;84.80
21676;DHT22;10999;51.332;9.458;2023-04-06T05:35:39;-1.40;84.30
21676;DHT22;10999;51.332;9.458;2023-04-06T05:38:08;-1.20;84.70
21676;DHT22;10999;51.332;9.458;2023-04-06T05:40:45;-1.10;83.90
21676;DHT22;10999;51.332;9.458;2023-04-06T05:43:17;-1.00;82.90
21676;DHT22;10999;51.332;9.458;2023-04-06T05:45:52;-0.90;82.60
21676;DHT22;10999;51.332;9.458;2023-04-06T05:48:24;-0.80;82.00
21676;DHT22;10999;51.332;9.458;2023-04-06T05:50:58;-0.70;81.70
21676;DHT22;10999;51.332;9.458;2023-04-06T05:53:27;-0.60;81.40
21676;DHT22;10999;51.332;9.458;2023-04-06T05:55:56;-0.60;80.90
21676;DHT22;10999;51.332;9.458;2023-04-06T05:58:25;-0.50;80.90
21676;DHT22;10999;51.332;9.458;2023-04-06T06:01:00;-0.40;81.00
21676;DHT22;10999;51.332;9.458;2023-04-06T06:03:31;-0.30;81.00
21676;DHT22;10999;51.332;9.458;2023-04-06T06:06:02;-0.20;80.80
21676;DHT22;10999;51.332;9.458;2023-04-06T06:08:31;0.00;80.20
21676;DHT22;10999;51.332;9.458;2023-04-06T06:10:58;0.20;77.80
21676;DHT22;10999;51.332;9.458;2023-04-06T06:13:26;0.30;75.10
21676;DHT22;10999;51.332;9.458;2023-04-06T06:15:54;0.40;73.90
21676;DHT22;10999;51.332;9.458;2023-04-06T06:18:23;0.60;73.70
21676;DHT22;10999;51.332;9.458;2023-04-06T06:20:52;0.70;73.70
21676;DHT22;10999;51.332;9.458;2023-04-06T06:23:21;0.90;73.40
21676;DHT22;10999;51.332;9.458;2023-04-06T06:25:48;1.20;72.80
21676;DHT22;10999;51.332;9.458;2023-04-06T06:28:18;1.50;72.60
21676;DHT22;10999;51.332;9.458;2023-04-06T06:30:54;1.80;70.00
21676;DHT22;10999;51.332;9.458;2023-04-06T06:33:22;2.10;66.20
21676;DHT22;10999;51.332;9.458;2023-04-06T06:35:50;2.40;63.30
21676;DHT22;10999;51.332;9.458;2023-04-06T06:38:18;2.80;61.50
21676;DHT22;10999;51.332;9.458;2023-04-06T06:40:49;3.20;59.90
21676;DHT22;10999;51.332;9.458;2023-04-06T06:43:17;3.50;57.90
21676;DHT22;10999;51.332;9.458;2023-04-06T06:45:44;3.90;57.60
21676;DHT22;10999;51.332;9.458;2023-04-06T06:48:12;4.30;54.80
21676;DHT22;10999;51.332;9.458;2023-04-06T06:50:41;4.60;49.30
21676;DHT22;10999;51.332;9.458;2023-04-06T06:53:08;4.90;42.60
21676;DHT22;10999;51.332;9.458;2023-04-06T06:55:37;5.30;43.00
21676;DHT22;10999;51.332;9.458;2023-04-06T06:58:08;5.70;42.70
21676;DHT22;10999;51.332;9.458;2023-04-06T07:00:36;6.00;41.90
21676;DHT22;10999;51.332;9.458;2023-04-06T07:03:03;6.20;36.70
21676;DHT22;10999;51.332;9.458;2023-04-06T07:05:30;6.60;37.30
21676;DHT22;10999;51.332;9.458;2023-04-06T07:07:57;6.80;34.80
21676;DHT22;10999;51.332;9.458;2023-04-06T07:10:24;7.20;34.90
21676;DHT22;10999;51.332;9.458;2023-04-06T07:12:52;7.60;33.70
21676;DHT22;10999;51.332;9.458;2023-04-06T07:15:19;7.90;30.30
21676;DHT22;10999;51.332;9.458;2023-04-06T07:17:46;8.20;30.20
21676;DHT22;10999;51.332;9.458;2023-04-06T07:20:13;8.60;31.30
21676;DHT22;10999;51.332;9.458;2023-04-06T07:22:43;8.40;28.20
21676;DHT22;10999;51.332;9.458;2023-04-06T07:25:11;8.80;27.40
21676;DHT22;10999;51.332;9.458;2023-04-06T07:27:38;9.10;25.60
21676;DHT22;10999;51.332;9.458;2023-04-06T07:30:05;9.30;23.60
21676;DHT22;10999;51.332;9.458;2023-04-06T07:32:32;9.60;23.80
21676;DHT22;10999;51.332;9.458;2023-04-06T07:35:01;9.50;21.90
21676;DHT22;10999;51.332;9.458;2023-04-06T07:37:28;9.30;21.50
21676;DHT22;10999;51.332;9.458;2023-04-06T07:40:03;9.40;22.00
21676;DHT22;10999;51.332;9.458;2023-04-06T07:42:31;9.40;19.90
21676;DHT22;10999;51.332;9.458;2023-04-06T07:44:59;9.70;20.60
21676;DHT22;10999;51.332;9.458;2023-04-06T07:47:26;10.30;21.40
21676;DHT22;10999;51.332;9.458;2023-04-06T07:49:54;10.40;17.50
21676;DHT22;10999;51.332;9.458;2023-04-06T07:52:22;9.60;16.60
21676;DHT22;10999;51.332;9.458;2023-04-06T07:55:00;9.70;19.20
21676;DHT22;10999;51.332;9.458;2023-04-06T07:57:32;10.20;20.10
21676;DHT22;10999;51.332;9.458;2023-04-06T07:59:59;10.80;19.50
21676;DHT22;10999;51.332;9.458;2023-04-06T08:02:27;10.90;16.80
21676;DHT22;10999;51.332;9.458;2023-04-06T08:04:54;10.90;14.60
21676;DHT22;10999;51.332;9.458;2023-04-06T08:07:24;10.90;14.70
21676;DHT22;10999;51.332;9.458;2023-04-06T08:09:51;10.70;14.50
21676;DHT22;10999;51.332;9.458;2023-04-06T08:12:21;10.30;15.70
21676;DHT22;10999;51.332;9.458;2023-04-06T08:14:48;10.30;16.90
21676;DHT22;10999;51.332;9.458;2023-04-06T08:17:15;10.30;16.80
21676;DHT22;10999;51.332;9.458;2023-04-06T08:19:44;10.40;14.50
21676;DHT22;10999;51.332;9.458;2023-04-06T08:22:11;10.50;16.60
21676;DHT22;10999;51.332;9.458;2023-04-06T08:24:38;11.10;16.40
21676;DHT22;10999;51.332;9.458;2023-04-06T08:27:05;10.50;12.90
21676;DHT22;10999;51.332;9.458;2023-04-06T08:29:32;9.70;14.30
21676;DHT22;10999;51.332;9.458;2023-04-06T08:31:59;10.00;15.10
21676;DHT22;10999;51.332;9.458;2023-04-06T08:34:26;9.80;14.80
21676;DHT22;10999;51.332;9.458;2023-04-06T08:36:53;9.80;15.10
21676;DHT22;10999;51.332;9.458;2023-04-06T08:39:20;10.10;16.10
21676;DHT22;10999;51.332;9.458;2023-04-06T08:41:52;10.70;15.10
21676;DHT22;10999;51.332;9.458;2023-04-06T08:44:19;11.40;16.30
21676;DHT22;10999;51.332;9.458;2023-04-06T08:46:47;10.80;13.60
21676;DHT22;10999;51.332;9.458;2023-04-06T08:49:14;11.50;14.80
21676;DHT22;10999;51.332;9.458;2023-04-06T08:51:42;11.90;15.90
21676;DHT22;10999;51.332;9.458;2023-04-06T08:54:09;12.30;12.80
21676;DHT22;10999;51.332;9.458;2023-04-06T08:56:38;12.80;13.40
21676;DHT22;10999;51.332;9.458;2023-04-06T08:59:06;13.00;11.90
21676;DHT22;10999;51.332;9.458;2023-04-06T09:01:38;12.80;11.00
21676;DHT22;10999;51.332;9.458;2023-04-06T09:04:08;13.10;10.50
21676;DHT22;10999;51.332;9.458;2023-04-06T09:06:39;12.20;9.30
21676;DHT22;10999;51.332;9.458;2023-04-06T09:09:07;12.30;11.00
21676;DHT22;10999;51.332;9.458;2023-04-06T09:11:46;12.20;10.90
21676;DHT22;10999;51.332;9.458;2023-04-06T09:14:13;11.60;11.10
21676;DHT22;10999;51.332;9.458;2023-04-06T09:16:44;11.80;12.10
21676;DHT22;10999;51.332;9.458;2023-04-06T09:19:12;12.40;13.50
21676;DHT22;10999;51.332;9.458;2023-04-06T09:21:39;12.90;14.50
21676;DHT22;10999;51.332;9.458;2023-04-06T09:24:08;12.90;10.30
21676;DHT22;10999;51.332;9.458;2023-04-06T09:26:45;12.80;10.30
21676;DHT22;10999;51.332;9.458;2023-04-06T09:29:26;12.30;9.90
21676;DHT22;10999;51.332;9.458;2023-04-06T09:32:05;12.60;11.40
21676;DHT22;10999;51.332;9.458;2023-04-06T09:34:33;12.90;13.30
21676;DHT22;10999;51.332;9.458;2023-04-06T09:37:00;13.40;11.00
21676;DHT22;10999;51.332;9.458;2023-04-06T09:39:27;13.60;9.70
21676;DHT22;10999;51.332;9.458;2023-04-06T09:41:54;13.00;7.90
21676;DHT22;10999;51.332;9.458;2023-04-06T09:44:22;12.20;8.50
21676;DHT22;10999;51.332;9.458;2023-04-06T09:46:53;12.40;12.60
21676;DHT22;10999;51.332;9.458;2023-04-06T09:49:31;12.80;10.50
21676;DHT22;10999;51.332;9.458;2023-04-06T09:52:02;12.20;9.50
21676;DHT22;10999;51.332;9.458;2023-04-06T09:54:30;12.20;10.80
21676;DHT22;10999;51.332;9.458;2023-04-06T10:00:25;12.10;11.90
21676;DHT22;10999;51.332;9.458;2023-04-06T10:05:42;12.30;11.10
21676;DHT22;10999;51.332;9.458;2023-04-06T10:08:10;12.50;12.40
21676;DHT22;10999;51.332;9.458;2023-04-06T10:10:37;12.60;10.80
21676;DHT22;10999;51.332;9.458;2023-04-06T10:13:05;12.60;11.00
21676;DHT22;10999;51.332;9.458;2023-04-06T10:15:33;12.50;8.60
21676;DHT22;10999;51.332;9.458;2023-04-06T10:18:02;12.40;11.20
21676;DHT22;10999;51.332;9.458;2023-04-06T10:25:57;12.80;10.10
21676;DHT22;10999;51.332;9.458;2023-04-06T10:28:24;12.70;11.20
21676;DHT22;10999;51.332;9.458;2023-04-06T10:31:04;12.50;10.60
21676;DHT22;10999;51.332;9.458;2023-04-06T10:33:31;12.80;12.50
21676;DHT22;10999;51.332;9.458;2023-04-06T10:35:58;13.10;12.00
21676;DHT22;10999;51.332;9.458;2023-04-06T10:38:39;13.30;10.60
21676;DHT22;10999;51.332;9.458;2023-04-06T10:41:11;13.20;9.70
21676;DHT22;10999;51.332;9.458;2023-04-06T10:43:40;13.00;10.00
21676;DHT22;10999;51.332;9.458;2023-04-06T10:46:07;13.20;10.70
21676;DHT22;10999;51.332;9.458;2023-04-06T10:48:40;13.30;10.30
21676;DHT22;10999;51.332;9.458;2023-04-06T10:51:15;13.30;12.10
21676;DHT22;10999;51.332;9.458;2023-04-06T10:53:44;13.30;11.50
21676;DHT22;10999;51.332;9.458;2023-04-06T10:56:12;13.30;13.80
21676;DHT22;10999;51.332;9.458;2023-04-06T10:58:47;13.40;11.00
21676;DHT22;10999;51.332;9.458;2023-04-06T11:01:22;13.20;10.10
21676;DHT22;10999;51.332;9.458;2023-04-06T11:03:52;13.30;10.90
21676;DHT22;10999;51.332;9.458;2023-04-06T11:08:47;13.00;12.00
21676;DHT22;10999;51.332;9.458;2023-04-06T11:11:16;13.20;12.70
21676;DHT22;10999;51.332;9.458;2023-04-06T11:13:58;12.90;10.40
21676;DHT22;10999;51.332;9.458;2023-04-06T11:16:26;13.00;11.10
21676;DHT22;10999;51.332;9.458;2023-04-06T11:19:03;13.10;10.90
21676;DHT22;10999;51.332;9.458;2023-04-06T11:21:54;12.80;11.30
21676;DHT22;10999;51.332;9.458;2023-04-06T11:24:22;13.00;12.10
21676;DHT22;10999;51.332;9.458;2023-04-06T11:26:56;12.90;10.90
21676;DHT22;10999;51.332;9.458;2023-04-06T11:29:28;13.10;11.40
21676;DHT22;10999;51.332;9.458;2023-04-06T11:32:03;13.20;11.80
21676;DHT22;10999;51.332;9.458;2023-04-06T11:34:33;13.30;11.10
21676;DHT22;10999;51.332;9.458;2023-04-06T11:37:03;13.20;11.50
21676;DHT22;10999;51.332;9.458;2023-04-06T11:39:38;13.20;10.80
21676;DHT22;10999;51.332;9.458;2023-04-06T11:42:06;13.50;11.70
21676;DHT22;10999;51.332;9.458;2023-04-06T11:44:44;13.30;11.50
21676;DHT22;10999;51.332;9.458;2023-04-06T11:47:15;12.90;10.00
21676;DHT22;10999;51.332;9.458;2023-04-06T11:49:43;12.90;13.40
21676;DHT22;10999;51.332;9.458;2023-04-06T11:52:24;13.00;12.40
21676;DHT22;10999;51.332;9.458;2023-04-06T11:54:53;12.90;11.30
21676;DHT22;10999;51.332;9.458;2023-04-06T11:57:21;13.20;13.30
21676;DHT22;10999;51.332;9.458;2023-04-06T11:59:51;13.40;12.20
21676;DHT22;10999;51.332;9.458;2023-04-06T12:02:18;13.30;10.50
21676;DHT22;10999;51.332;9.458;2023-04-06T12:04:45;13.20;9.50
21676;DHT22;10999;51.332;9.458;2023-04-06T12:07:12;13.30;10.80
21676;DHT22;10999;51.332;9.458;2023-04-06T12:09:39;13.50;11.90
21676;DHT22;10999;51.332;9.458;2023-04-06T12:12:07;13.50;10.40
21676;DHT22;10999;51.332;9.458;2023-04-06T12:14:33;13.70;9.90
21676;DHT22;10999;51.332;9.458;2023-04-06T12:17:00;13.50;10.30
21676;DHT22;10999;51.332;9.458;2023-04-06T12:19:27;13.20;8.60
21676;DHT22;10999;51.332;9.458;2023-04-06T12:21:57;13.40;9.60
21676;DHT22;10999;51.332;9.458;2023-04-06T12:24:24;13.50;9.70
21676;DHT22;10999;51.332;9.458;2023-04-06T12:26:50;13.50;9.30
21676;DHT22;10999;51.332;9.458;2023-04-06T12:29:32;13.70;9.90
21676;DHT22;10999;51.332;9.458;2023-04-06T12:31:59;13.80;9.40
21676;DHT22;10999;51.332;9.458;2023-04-06T12:34:28;13.90;10.30
21676;DHT22;10999;51.332;9.458;2023-04-06T12:36:54;13.90;10.20
21676;DHT22;10999;51.332;9.458;2023-04-06T12:39:22;13.90;9.60
21676;DHT22;10999;51.332;9.458;2023-04-06T12:41:49;13.80;7.00
21676;DHT22;10999;51.332;9.458;2023-04-06T12:44:16;13.70;8.00
21676;DHT22;10999;51.332;9.458;2023-04-06T12:46:43;13.60;9.40
21676;DHT22;10999;51.332;9.458;2023-04-06T12:49:10;13.60;8.60
21676;DHT22;10999;51.332;9.458;2023-04-06T12:51:37;13.40;7.90
21676;DHT22;10999;51.332;9.458;2023-04-06T12:54:04;13.60;9.30
21676;DHT22;10999;51.332;9.458;2023-04-06T12:56:31;13.60;10.50
21676;DHT22;10999;51.332;9.458;2023-04-06T12:58:58;13.80;8.90
21676;DHT22;10999;51.332;9.458;2023-04-06T13:01:24;13.60;8.60
21676;DHT22;10999;51.332;9.458;2023-04-06T13:03:53;13.80;10.10
21676;DHT22;10999;51.332;9.458;2023-04-06T13:06:20;13.90;10.10
21676;DHT22;10999;51.332;9.458;2023-04-06T13:08:47;13.60;7.30
21676;DHT22;10999;51.332;9.458;2023-04-06T13:11:17;13.70;9.30
21676;DHT22;10999;51.332;9.458;2023-04-06T13:13:45;13.70;8.70
21676;DHT22;10999;51.332;9.458;2023-04-06T13:16:12;13.90;10.00
21676;DHT22;10999;51.332;9.458;2023-04-06T13:18:39;14.00;9.30
21676;DHT22;10999;51.332;9.458;2023-04-06T13:21:06;14.20;9.60
21676;DHT22;10999;51.332;9.458;2023-04-06T13:23:34;14.10;8.50
21676;DHT22;10999;51.332;9.458;2023-04-06T13:26:06;14.30;10.30
21676;DHT22;10999;51.332;9.458;2023-04-06T13:28:35;14.20;7.50
21676;DHT22;10999;51.332;9.458;2023-04-06T13:31:05;14.10;7.20
21676;DHT22;10999;51.332;9.458;2023-04-06T13:33:32;14.20;7.60
21676;DHT22;10999;51.332;9.458;2023-04-06T13:35:59;14.00;7.70
21676;DHT22;10999;51.332;9.458;2023-04-06T13:38:27;13.90;7.60
21676;DHT22;10999;51.332;9.458;2023-04-06T13:40:54;13.80;8.20
21676;DHT22;10999;51.332;9.458;2023-04-06T13:43:21;13.70;9.40
21676;DHT22;10999;51.332;9.458;2023-04-06T13:45:53;13.90;9.30
21676;DHT22;10999;51.332;9.458;2023-04-06T13:48:21;14.00;10.40
21676;DHT22;10999;51.332;9.458;2023-04-06T13:50:49;13.70;7.70
21676;DHT22;10999;51.332;9.458;2023-04-06T13:53:16;13.60;7.50
21676;DHT22;10999;51.332;9.458;2023-04-06T13:55:43;13.60;8.30
21676;DHT22;10999;51.332;9.458;2023-04-06T13:58:10;13.70;8.50
21676;DHT22;10999;51.332;9.458;2023-04-06T14:00:37;13.80;8.90
21676;DHT22;10999;51.332;9.458;2023-04-06T14:03:05;13.80;8.20
21676;DHT22;10999;51.332;9.458;2023-04-06T14:05:33;13.90;9.40
21676;DHT22;10999;51.332;9.458;2023-04-06T14:08:00;14.00;8.70
21676;DHT22;10999;51.332;9.458;2023-04-06T14:10:27;14.20;9.20
21676;DHT22;10999;51.332;9.458;2023-04-06T14:12:54;14.20;7.50
21676;DHT22;10999;51.332;9.458;2023-04-06T14:15:22;14.20;7.30
21676;DHT22;10999;51.332;9.458;2023-04-06T14:17:49;14.20;7.30
21676;DHT22;10999;51.332;9.458;2023-04-06T14:20:16;14.30;8.20
21676;DHT22;10999;51.332;9.458;2023-04-06T14:22:43;14.20;8.20
21676;DHT22;10999;51.332;9.458;2023-04-06T14:25:10;14.10;8.40
21676;DHT22;10999;51.332;9.458;2023-04-06T14:27:40;14.00;7.40
21676;DHT22;10999;51.332;9.458;2023-04-06T14:30:07;14.00;8.50
21676;DHT22;10999;51.332;9.458;2023-04-06T14:32:34;14.00;9.10
21676;DHT22;10999;51.332;9.458;2023-04-06T14:35:06;14.20;8.90
21676;DHT22;10999;51.332;9.458;2023-04-06T14:37:34;14.20;7.90
21676;DHT22;10999;51.332;9.458;2023-04-06T14:40:02;14.00;7.20
21676;DHT22;10999;51.332;9.458;2023-04-06T14:42:28;14.00;10.20
21676;DHT22;10999;51.332;9.458;2023-04-06T14:44:56;14.00;9.00
21676;DHT22;10999;51.332;9.458;2023-04-06T14:47:22;14.20;10.70
21676;DHT22;10999;51.332;9.458;2023-04-06T14:49:51;14.10;9.00
21676;DHT22;10999;51.332;9.458;2023-04-06T14:52:19;13.90;9.30
21676;DHT22;10999;51.332;9.458;2023-04-06T14:54:46;13.90;10.10
21676;DHT22;10999;51.332;9.458;2023-04-06T14:57:12;13.90;7.70
21676;DHT22;10999;51.332;9.458;2023-04-06T14:59:39;13.80;8.70
21676;DHT22;10999;51.332;9.458;2023-04-06T15:02:06;13.90;9.40
21676;DHT22;10999;51.332;9.458;2023-04-06T15:04:38;13.90;9.90
21676;DHT22;10999;51.332;9.458;2023-04-06T15:07:04;13.80;7.40
21676;DHT22;10999;51.332;9.458;2023-04-06T15:09:31;13.70;9.30
21676;DHT22;10999;51.332;9.458;2023-04-06T15:11:58;13.70;9.30
21676;DHT22;10999;51.332;9.458;2023-04-06T15:14:25;13.70;9.80
21676;DHT22;10999;51.332;9.458;2023-04-06T15:16:51;13.70;8.90
21676;DHT22;10999;51.332;9.458;2023-04-06T15:19:18;13.70;9.20
21676;DHT22;10999;51.332;9.458;2023-04-06T15:21:45;13.60;9.80
21676;DHT22;10999;51.332;9.458;2023-04-06T15:24:12;13.40;10.30
21676;DHT22;10999;51.332;9.458;2023-04-06T15:26:39;13.30;10.10
21676;DHT22;10999;51.332;9.458;2023-04-06T15:29:06;13.10;9.80
21676;DHT22;10999;51.332;9.458;2023-04-06T15:31:33;13.00;10.30
21676;DHT22;10999;51.332;9.458;2023-04-06T15:34:07;13.00;11.70
21676;DHT22;10999;51.332;9.458;2023-04-06T15:36:37;13.00;11.20
21676;DHT22;10999;51.332;9.458;2023-04-06T15:39:04;13.00;11.30
21676;DHT22;10999;51.332;9.458;2023-04-06T15:41:35;13.10;11.20
21676;DHT22;10999;51.332;9.458;2023-04-06T15:44:02;13.00;11.50
21676;DHT22;10999;51.332;9.458;2023-04-06T15:46:30;13.10;11.40
21676;DHT22;10999;51.332;9.458;2023-04-06T15:48:57;13.10;12.30
21676;DHT22;10999;51.332;9.458;2023-04-06T15:51:23;12.90;11.30
21676;DHT22;10999;51.332;9.458;2023-04-06T15:53:50;12.80;12.00
21676;DHT22;10999;51.332;9.458;2023-04-06T15:56:17;12.70;12.50
21676;DHT22;10999;51.332;9.458;2023-04-06T15:58:44;12.60;12.10
21676;DHT22;10999;51.332;9.458;2023-04-06T16:01:15;12.60;12.30
21676;DHT22;10999;51.332;9.458;2023-04-06T16:03:42;12.60;12.30
21676;DHT22;10999;51.332;9.458;2023-04-06T16:06:10;12.50;12.20